sensor_id;sensor_type;location;lat;lon;timestamp;temperature;humidity
40516;DHT22;26216;53.724;9.898;2023-06-24T00:01:18;18.90;92.80
40516;DHT22;26216;53.724;9.898;2023-06-24T00:03:44;18.80;92.80
40516;DHT22;26216;53.724;9.898;2023-06-24T00:06:13;18.80;92.80
40516;DHT22;26216;53.724;9.898;2023-06-24T00:08:50;18.70;92.70
40516;DHT22;26216;53.724;9.898;2023-06-24T00:11:16;18.70;92.70
40516;DHT22;26216;53.724;9.898;2023-06-24T00:13:43;18.70;92.60
40516;DHT22;26216;53.724;9.898;2023-06-24T00:16:09;18.60;92.50
40516;DHT22;26216;53.724;9.898;2023-06-24T00:18:36;18.50;92.40
40516;DHT22;26216;53.724;9.898;2023-06-24T00:21:03;18.50;92.40
40516;DHT22;26216;53.724;9.898;2023-06-24T00:23:29;18.40;92.30
40516;DHT22;26216;53.724;9.898;2023-06-24T00:26:00;18.40;92.30
40516;DHT22;26216;53.724;9.898;2023-06-24T00:28:26;18.30;92.20
40516;DHT22;26216;53.724;9.898;2023-06-24T00:30:52;18.30;92.30
40516;DHT22;26216;53.724;9.898;2023-06-24T00:33:19;18.20;92.20
40516;DHT22;26216;53.724;9.898;2023-06-24T00:35:47;18.20;92.20
40516;DHT22;26216;53.724;9.898;2023-06-24T00:38:13;18.10;92.20
40516;DHT22;26216;53.724;9.898;2023-06-24T00:40:39;18.10;92.20
40516;DHT22;26216;53.724;9.898;2023-06-24T00:43:06;18.00;92.20
40516;DHT22;26216;53.724;9.898;2023-06-24T00:45:31;18.00;92.20
40516;DHT22;26216;53.724;9.898;2023-06-24T00:47:58;17.90;92.20
40516;DHT22;26216;53.724;9.898;2023-06-24T00:50:24;17.80;92.10
40516;DHT22;26216;53.724;9.898;2023-06-24T00:52:50;17.80;92.10
40516;DHT22;26216;53.724;9.898;2023-06-24T00:55:16;17.80;92.20
40516;DHT22;26216;53.724;9.898;2023-06-24T00:57:43;17.70;92.20
40516;DHT22;26216;53.724;9.898;2023-06-24T01:00:11;17.60;92.10
40516;DHT22;26216;53.724;9.898;2023-06-24T01:02:42;17.60;92.10
40516;DHT22;26216;53.724;9.898;2023-06-24T01:05:10;17.60;92.10
40516;DHT22;26216;53.724;9.898;2023-06-24T01:07:39;17.50;92.20
40516;DHT22;26216;53.724;9.898;2023-06-24T01:10:06;17.50;92.20
40516;DHT22;26216;53.724;9.898;2023-06-24T01:12:37;17.40;92.20
40516;DHT22;26216;53.724;9.898;2023-06-24T01:15:07;17.30;92.20
40516;DHT22;26216;53.724;9.898;2023-06-24T01:17:45;17.30;92.20
40516;DHT22;26216;53.724;9.898;2023-06-24T01:20:23;17.30;92.60
40516;DHT22;26216;53.724;9.898;2023-06-24T01:31:44;17.10;92.30
40516;DHT22;26216;53.724;9.898;2023-06-24T01:36:45;17.00;92.20
40516;DHT22;26216;53.724;9.898;2023-06-24T01:39:13;16.90;92.20
40516;DHT22;26216;53.724;9.898;2023-06-24T01:41:47;16.90;92.20
40516;DHT22;26216;53.724;9.898;2023-06-24T01:44:16;16.90;92.30
40516;DHT22;26216;53.724;9.898;2023-06-24T01:46:46;16.80;92.20
40516;DHT22;26216;53.724;9.898;2023-06-24T01:49:16;16.80;92.30
40516;DHT22;26216;53.724;9.898;2023-06-24T01:51:45;16.80;92.30
40516;DHT22;26216;53.724;9.898;2023-06-24T01:54:15;16.70;92.30
40516;DHT22;26216;53.724;9.898;2023-06-24T01:56:45;16.70;92.30
40516;DHT22;26216;53.724;9.898;2023-06-24T01:59:15;16.70;92.30
40516;DHT22;26216;53.724;9.898;2023-06-24T02:01:42;16.60;92.40
40516;DHT22;26216;53.724;9.898;2023-06-24T02:04:09;16.60;92.30
40516;DHT22;26216;53.724;9.898;2023-06-24T02:06:38;16.60;92.30
40516;DHT22;26216;53.724;9.898;2023-06-24T02:09:06;16.60;92.30
40516;DHT22;26216;53.724;9.898;2023-06-24T02:11:33;16.50;92.40
40516;DHT22;26216;53.724;9.898;2023-06-24T02:14:01;16.50;92.40
40516;DHT22;26216;53.724;9.898;2023-06-24T02:16:29;16.50;92.40
40516;DHT22;26216;53.724;9.898;2023-06-24T02:18:55;16.40;92.40
40516;DHT22;26216;53.724;9.898;2023-06-24T02:21:21;16.40;92.40
40516;DHT22;26216;53.724;9.898;2023-06-24T02:23:49;16.30;92.30
40516;DHT22;26216;53.724;9.898;2023-06-24T02:26:16;16.30;92.40
40516;DHT22;26216;53.724;9.898;2023-06-24T02:28:43;16.30;92.40
40516;DHT22;26216;53.724;9.898;2023-06-24T02:31:10;16.30;92.40
40516;DHT22;26216;53.724;9.898;2023-06-24T02:33:38;16.30;92.40
40516;DHT22;26216;53.724;9.898;2023-06-24T02:36:04;16.20;92.40
40516;DHT22;26216;53.724;9.898;2023-06-24T02:38:30;16.20;92.40
40516;DHT22;26216;53.724;9.898;2023-06-24T02:40:55;16.20;92.40
40516;DHT22;26216;53.724;9.898;2023-06-24T02:43:22;16.20;92.50
40516;DHT22;26216;53.724;9.898;2023-06-24T02:45:48;16.20;92.80
40516;DHT22;26216;53.724;9.898;2023-06-24T02:48:17;16.10;92.50
40516;DHT22;26216;53.724;9.898;2023-06-24T02:50:44;16.10;92.40
40516;DHT22;26216;53.724;9.898;2023-06-24T02:53:12;16.10;92.40
40516;DHT22;26216;53.724;9.898;2023-06-24T02:55:40;16.10;92.40
40516;DHT22;26216;53.724;9.898;2023-06-24T02:58:08;16.10;92.50
40516;DHT22;26216;53.724;9.898;2023-06-24T03:00:35;16.10;92.50
40516;DHT22;26216;53.724;9.898;2023-06-24T03:03:02;16.00;92.50
40516;DHT22;26216;53.724;9.898;2023-06-24T03:05:30;16.00;92.50
40516;DHT22;26216;53.724;9.898;2023-06-24T03:07:57;16.00;92.50
40516;DHT22;26216;53.724;9.898;2023-06-24T03:10:24;16.00;92.60
40516;DHT22;26216;53.724;9.898;2023-06-24T03:12:51;16.00;92.60
40516;DHT22;26216;53.724;9.898;2023-06-24T03:15:17;16.00;92.70
40516;DHT22;26216;53.724;9.898;2023-06-24T03:17:43;16.00;92.70
40516;DHT22;26216;53.724;9.898;2023-06-24T03:20:10;16.00;92.70
40516;DHT22;26216;53.724;9.898;2023-06-24T03:22:36;15.90;92.70
40516;DHT22;26216;53.724;9.898;2023-06-24T03:25:02;15.90;92.80
40516;DHT22;26216;53.724;9.898;2023-06-24T03:27:27;16.00;93.00
40516;DHT22;26216;53.724;9.898;2023-06-24T03:29:53;16.00;93.00
40516;DHT22;26216;53.724;9.898;2023-06-24T03:32:19;15.90;92.90
40516;DHT22;26216;53.724;9.898;2023-06-24T03:34:45;16.00;93.10
40516;DHT22;26216;53.724;9.898;2023-06-24T03:37:11;16.00;93.10
40516;DHT22;26216;53.724;9.898;2023-06-24T03:39:36;16.00;93.20
40516;DHT22;26216;53.724;9.898;2023-06-24T03:42:02;16.00;93.20
40516;DHT22;26216;53.724;9.898;2023-06-24T03:44:28;16.00;93.50
40516;DHT22;26216;53.724;9.898;2023-06-24T03:46:54;16.00;93.30
40516;DHT22;26216;53.724;9.898;2023-06-24T03:49:20;16.00;93.40
40516;DHT22;26216;53.724;9.898;2023-06-24T03:51:46;16.00;93.50
40516;DHT22;26216;53.724;9.898;2023-06-24T03:54:11;16.10;93.70
40516;DHT22;26216;53.724;9.898;2023-06-24T03:56:37;16.20;93.80
40516;DHT22;26216;53.724;9.898;2023-06-24T03:59:03;16.20;94.00
40516;DHT22;26216;53.724;9.898;2023-06-24T04:01:29;16.20;94.10
40516;DHT22;26216;53.724;9.898;2023-06-24T04:03:58;16.30;94.30
40516;DHT22;26216;53.724;9.898;2023-06-24T04:06:24;16.40;94.50
40516;DHT22;26216;53.724;9.898;2023-06-24T04:08:49;16.50;94.60
40516;DHT22;26216;53.724;9.898;2023-06-24T04:11:18;16.60;94.80
40516;DHT22;26216;53.724;9.898;2023-06-24T04:13:46;16.70;95.00
40516;DHT22;26216;53.724;9.898;2023-06-24T04:16:14;16.80;95.20
40516;DHT22;26216;53.724;9.898;2023-06-24T04:18:40;16.90;95.20
40516;DHT22;26216;53.724;9.898;2023-06-24T04:21:06;17.00;95.40
40516;DHT22;26216;53.724;9.898;2023-06-24T04:23:32;17.20;95.50
40516;DHT22;26216;53.724;9.898;2023-06-24T04:25:59;17.30;95.60
40516;DHT22;26216;53.724;9.898;2023-06-24T04:28:24;17.50;95.70
40516;DHT22;26216;53.724;9.898;2023-06-24T04:30:51;17.60;95.80
40516;DHT22;26216;53.724;9.898;2023-06-24T04:33:17;17.70;95.90
40516;DHT22;26216;53.724;9.898;2023-06-24T04:35:43;17.90;96.00
40516;DHT22;26216;53.724;9.898;2023-06-24T04:38:09;18.00;96.00
40516;DHT22;26216;53.724;9.898;2023-06-24T04:40:36;18.20;96.10
40516;DHT22;26216;53.724;9.898;2023-06-24T04:43:02;18.40;96.10
40516;DHT22;26216;53.724;9.898;2023-06-24T04:45:28;18.50;96.20
40516;DHT22;26216;53.724;9.898;2023-06-24T04:47:54;18.70;96.20
40516;DHT22;26216;53.724;9.898;2023-06-24T04:50:20;18.90;96.20
40516;DHT22;26216;53.724;9.898;2023-06-24T04:52:52;19.00;96.20
40516;DHT22;26216;53.724;9.898;2023-06-24T04:55:18;19.20;96.30
40516;DHT22;26216;53.724;9.898;2023-06-24T04:57:44;19.30;96.10
40516;DHT22;26216;53.724;9.898;2023-06-24T05:00:10;19.50;96.10
40516;DHT22;26216;53.724;9.898;2023-06-24T05:02:36;19.70;96.10
40516;DHT22;26216;53.724;9.898;2023-06-24T05:05:02;19.80;96.40
40516;DHT22;26216;53.724;9.898;2023-06-24T05:07:28;20.00;96.10
40516;DHT22;26216;53.724;9.898;2023-06-24T05:09:54;20.20;96.00
40516;DHT22;26216;53.724;9.898;2023-06-24T05:12:19;20.30;95.90
40516;DHT22;26216;53.724;9.898;2023-06-24T05:14:52;20.40;95.80
40516;DHT22;26216;53.724;9.898;2023-06-24T05:17:18;20.60;95.80
40516;DHT22;26216;53.724;9.898;2023-06-24T05:19:44;20.70;95.60
40516;DHT22;26216;53.724;9.898;2023-06-24T05:22:10;20.90;95.50
40516;DHT22;26216;53.724;9.898;2023-06-24T05:24:36;21.00;95.50
40516;DHT22;26216;53.724;9.898;2023-06-24T05:27:06;21.10;95.50
40516;DHT22;26216;53.724;9.898;2023-06-24T05:29:32;21.20;95.60
40516;DHT22;26216;53.724;9.898;2023-06-24T05:31:58;21.30;95.40
40516;DHT22;26216;53.724;9.898;2023-06-24T05:34:24;21.50;95.60
40516;DHT22;26216;53.724;9.898;2023-06-24T05:36:50;21.50;95.20
40516;DHT22;26216;53.724;9.898;2023-06-24T05:39:17;21.70;94.90
40516;DHT22;26216;53.724;9.898;2023-06-24T05:41:43;21.80;94.90
40516;DHT22;26216;53.724;9.898;2023-06-24T05:44:09;21.90;94.90
40516;DHT22;26216;53.724;9.898;2023-06-24T05:46:36;22.00;94.80
40516;DHT22;26216;53.724;9.898;2023-06-24T05:49:02;22.20;94.70
40516;DHT22;26216;53.724;9.898;2023-06-24T05:51:28;22.30;94.00
40516;DHT22;26216;53.724;9.898;2023-06-24T05:53:54;22.30;94.10
40516;DHT22;26216;53.724;9.898;2023-06-24T05:56:20;22.50;94.30
40516;DHT22;26216;53.724;9.898;2023-06-24T05:58:48;22.50;93.90
40516;DHT22;26216;53.724;9.898;2023-06-24T06:01:14;22.70;93.80
40516;DHT22;26216;53.724;9.898;2023-06-24T06:03:40;22.70;93.70
40516;DHT22;26216;53.724;9.898;2023-06-24T06:06:06;22.80;93.60
40516;DHT22;26216;53.724;9.898;2023-06-24T06:08:33;22.90;93.50
40516;DHT22;26216;53.724;9.898;2023-06-24T06:11:00;23.00;93.10
40516;DHT22;26216;53.724;9.898;2023-06-24T06:13:28;23.00;92.50
40516;DHT22;26216;53.724;9.898;2023-06-24T06:15:54;23.00;92.20
40516;DHT22;26216;53.724;9.898;2023-06-24T06:18:20;23.10;91.80
40516;DHT22;26216;53.724;9.898;2023-06-24T06:20:45;23.10;91.70
40516;DHT22;26216;53.724;9.898;2023-06-24T06:23:11;23.10;91.60
40516;DHT22;26216;53.724;9.898;2023-06-24T06:25:38;23.10;91.90
40516;DHT22;26216;53.724;9.898;2023-06-24T06:28:04;23.20;91.80
40516;DHT22;26216;53.724;9.898;2023-06-24T06:30:30;23.20;91.60
40516;DHT22;26216;53.724;9.898;2023-06-24T06:32:56;23.20;91.10
40516;DHT22;26216;53.724;9.898;2023-06-24T06:35:21;23.20;91.10
40516;DHT22;26216;53.724;9.898;2023-06-24T06:37:47;23.20;91.00
40516;DHT22;26216;53.724;9.898;2023-06-24T06:40:18;23.20;90.80
40516;DHT22;26216;53.724;9.898;2023-06-24T06:42:44;23.20;90.40
40516;DHT22;26216;53.724;9.898;2023-06-24T06:45:10;23.20;90.60
40516;DHT22;26216;53.724;9.898;2023-06-24T06:47:36;23.20;90.20
40516;DHT22;26216;53.724;9.898;2023-06-24T06:50:02;23.20;90.80
40516;DHT22;26216;53.724;9.898;2023-06-24T06:52:28;23.30;91.10
40516;DHT22;26216;53.724;9.898;2023-06-24T06:54:55;23.30;90.80
40516;DHT22;26216;53.724;9.898;2023-06-24T06:57:22;23.30;90.40
40516;DHT22;26216;53.724;9.898;2023-06-24T06:59:48;23.40;91.00
40516;DHT22;26216;53.724;9.898;2023-06-24T07:02:18;23.50;90.50
40516;DHT22;26216;53.724;9.898;2023-06-24T07:04:44;23.50;90.50
40516;DHT22;26216;53.724;9.898;2023-06-24T07:07:11;23.60;90.40
40516;DHT22;26216;53.724;9.898;2023-06-24T07:09:37;23.60;90.60
40516;DHT22;26216;53.724;9.898;2023-06-24T07:12:03;23.70;90.50
40516;DHT22;26216;53.724;9.898;2023-06-24T07:14:30;23.80;90.20
40516;DHT22;26216;53.724;9.898;2023-06-24T07:16:56;23.80;88.70
40516;DHT22;26216;53.724;9.898;2023-06-24T07:19:21;23.80;88.80
40516;DHT22;26216;53.724;9.898;2023-06-24T07:21:47;23.80;90.10
40516;DHT22;26216;53.724;9.898;2023-06-24T07:24:13;23.80;89.70
40516;DHT22;26216;53.724;9.898;2023-06-24T07:26:39;23.90;90.40
40516;DHT22;26216;53.724;9.898;2023-06-24T07:29:08;23.90;90.60
40516;DHT22;26216;53.724;9.898;2023-06-24T07:31:37;24.00;89.30
40516;DHT22;26216;53.724;9.898;2023-06-24T07:34:03;24.10;86.40
40516;DHT22;26216;53.724;9.898;2023-06-24T07:36:29;24.10;87.80
40516;DHT22;26216;53.724;9.898;2023-06-24T07:38:54;24.20;89.00
40516;DHT22;26216;53.724;9.898;2023-06-24T07:41:20;24.20;86.70
40516;DHT22;26216;53.724;9.898;2023-06-24T07:43:46;24.20;84.40
40516;DHT22;26216;53.724;9.898;2023-06-24T07:46:12;24.20;84.10
40516;DHT22;26216;53.724;9.898;2023-06-24T07:48:38;24.20;84.60
40516;DHT22;26216;53.724;9.898;2023-06-24T07:51:04;24.20;85.40
40516;DHT22;26216;53.724;9.898;2023-06-24T07:53:30;24.20;86.80
40516;DHT22;26216;53.724;9.898;2023-06-24T07:55:56;24.20;86.30
40516;DHT22;26216;53.724;9.898;2023-06-24T07:58:22;24.30;86.80
40516;DHT22;26216;53.724;9.898;2023-06-24T08:00:48;24.40;87.40
40516;DHT22;26216;53.724;9.898;2023-06-24T08:03:14;24.50;87.20
40516;DHT22;26216;53.724;9.898;2023-06-24T08:05:40;24.50;85.10
40516;DHT22;26216;53.724;9.898;2023-06-24T08:08:07;24.60;85.80
40516;DHT22;26216;53.724;9.898;2023-06-24T08:10:33;24.70;86.60
40516;DHT22;26216;53.724;9.898;2023-06-24T08:13:01;24.80;83.70
40516;DHT22;26216;53.724;9.898;2023-06-24T08:15:27;24.80;84.70
40516;DHT22;26216;53.724;9.898;2023-06-24T08:17:53;24.90;85.60
40516;DHT22;26216;53.724;9.898;2023-06-24T08:20:23;25.00;85.90
40516;DHT22;26216;53.724;9.898;2023-06-24T08:22:49;25.10;86.60
40516;DHT22;26216;53.724;9.898;2023-06-24T08:25:16;25.20;86.20
40516;DHT22;26216;53.724;9.898;2023-06-24T08:27:41;25.20;83.00
40516;DHT22;26216;53.724;9.898;2023-06-24T08:30:13;25.40;84.50
40516;DHT22;26216;53.724;9.898;2023-06-24T08:32:39;25.40;85.40
40516;DHT22;26216;53.724;9.898;2023-06-24T08:35:07;25.50;82.70
40516;DHT22;26216;53.724;9.898;2023-06-24T08:37:34;25.60;83.70
40516;DHT22;26216;53.724;9.898;2023-06-24T08:40:00;25.70;84.20
40516;DHT22;26216;53.724;9.898;2023-06-24T08:42:26;25.80;81.50
40516;DHT22;26216;53.724;9.898;2023-06-24T08:44:52;25.80;80.10
40516;DHT22;26216;53.724;9.898;2023-06-24T08:47:18;25.80;79.80
40516;DHT22;26216;53.724;9.898;2023-06-24T08:49:50;25.80;80.90
40516;DHT22;26216;53.724;9.898;2023-06-24T08:52:21;25.80;81.20
40516;DHT22;26216;53.724;9.898;2023-06-24T08:54:51;25.90;78.10
40516;DHT22;26216;53.724;9.898;2023-06-24T08:57:17;25.80;78.70
40516;DHT22;26216;53.724;9.898;2023-06-24T08:59:44;25.80;79.50
40516;DHT22;26216;53.724;9.898;2023-06-24T09:02:10;25.90;80.80
40516;DHT22;26216;53.724;9.898;2023-06-24T09:04:37;25.90;79.70
40516;DHT22;26216;53.724;9.898;2023-06-24T09:07:03;26.00;79.50
40516;DHT22;26216;53.724;9.898;2023-06-24T09:09:29;26.10;80.90
40516;DHT22;26216;53.724;9.898;2023-06-24T09:11:57;26.10;79.30
40516;DHT22;26216;53.724;9.898;2023-06-24T09:14:29;26.10;80.30
40516;DHT22;26216;53.724;9.898;2023-06-24T09:16:59;26.20;81.70
40516;DHT22;26216;53.724;9.898;2023-06-24T09:19:29;26.30;78.40
40516;DHT22;26216;53.724;9.898;2023-06-24T09:22:06;26.40;79.50
40516;DHT22;26216;53.724;9.898;2023-06-24T09:24:36;26.40;77.40
40516;DHT22;26216;53.724;9.898;2023-06-24T09:27:03;26.40;79.10
40516;DHT22;26216;53.724;9.898;2023-06-24T09:29:32;26.50;79.80
40516;DHT22;26216;53.724;9.898;2023-06-24T09:31:58;26.60;80.40
40516;DHT22;26216;53.724;9.898;2023-06-24T09:34:28;26.70;79.80
40516;DHT22;26216;53.724;9.898;2023-06-24T09:36:56;26.80;80.60
40516;DHT22;26216;53.724;9.898;2023-06-24T09:39:23;27.00;81.20
40516;DHT22;26216;53.724;9.898;2023-06-24T09:41:58;27.10;80.70
40516;DHT22;26216;53.724;9.898;2023-06-24T09:44:26;27.10;77.40
40516;DHT22;26216;53.724;9.898;2023-06-24T09:46:52;27.20;79.20
40516;DHT22;26216;53.724;9.898;2023-06-24T09:49:18;27.30;79.60
40516;DHT22;26216;53.724;9.898;2023-06-24T09:51:46;27.40;78.60
40516;DHT22;26216;53.724;9.898;2023-06-24T09:54:13;27.40;76.30
40516;DHT22;26216;53.724;9.898;2023-06-24T09:56:43;27.50;78.20
40516;DHT22;26216;53.724;9.898;2023-06-24T09:59:13;27.60;77.80
40516;DHT22;26216;53.724;9.898;2023-06-24T10:01:40;27.70;77.00
40516;DHT22;26216;53.724;9.898;2023-06-24T10:04:08;27.70;76.80
40516;DHT22;26216;53.724;9.898;2023-06-24T10:06:34;27.80;76.70
40516;DHT22;26216;53.724;9.898;2023-06-24T10:09:00;27.90;76.30
40516;DHT22;26216;53.724;9.898;2023-06-24T10:11:27;27.90;76.20
40516;DHT22;26216;53.724;9.898;2023-06-24T10:13:53;28.00;76.70
40516;DHT22;26216;53.724;9.898;2023-06-24T10:16:20;28.00;74.20
40516;DHT22;26216;53.724;9.898;2023-06-24T10:18:46;28.00;72.30
40516;DHT22;26216;53.724;9.898;2023-06-24T10:21:13;28.00;71.60
40516;DHT22;26216;53.724;9.898;2023-06-24T10:26:33;28.00;69.30
40516;DHT22;26216;53.724;9.898;2023-06-24T10:34:33;27.90;70.90
40516;DHT22;26216;53.724;9.898;2023-06-24T10:37:30;27.90;72.00
40516;DHT22;26216;53.724;9.898;2023-06-24T10:39:55;27.90;72.10
40516;DHT22;26216;53.724;9.898;2023-06-24T10:42:41;27.90;71.90
40516;DHT22;26216;53.724;9.898;2023-06-24T10:47:37;28.00;71.50
40516;DHT22;26216;53.724;9.898;2023-06-24T10:50:05;28.00;73.60
40516;DHT22;26216;53.724;9.898;2023-06-24T10:52:32;28.10;73.50
40516;DHT22;26216;53.724;9.898;2023-06-24T10:54:58;28.20;74.80
40516;DHT22;26216;53.724;9.898;2023-06-24T10:57:26;28.30;73.70
40516;DHT22;26216;53.724;9.898;2023-06-24T10:59:54;28.30;70.70
40516;DHT22;26216;53.724;9.898;2023-06-24T11:02:25;28.40;71.70
40516;DHT22;26216;53.724;9.898;2023-06-24T11:04:59;28.40;72.80
40516;DHT22;26216;53.724;9.898;2023-06-24T11:07:27;28.50;74.00
40516;DHT22;26216;53.724;9.898;2023-06-24T11:10:05;28.60;72.00
40516;DHT22;26216;53.724;9.898;2023-06-24T11:12:35;28.70;73.00
40516;DHT22;26216;53.724;9.898;2023-06-24T11:15:06;28.80;73.60
40516;DHT22;26216;53.724;9.898;2023-06-24T11:17:35;28.90;73.70
40516;DHT22;26216;53.724;9.898;2023-06-24T11:20:02;29.00;74.00
40516;DHT22;26216;53.724;9.898;2023-06-24T11:22:28;29.10;73.40
40516;DHT22;26216;53.724;9.898;2023-06-24T11:24:56;29.20;73.00
40516;DHT22;26216;53.724;9.898;2023-06-24T11:27:29;29.40;72.00
40516;DHT22;26216;53.724;9.898;2023-06-24T11:29:59;29.40;71.30
40516;DHT22;26216;53.724;9.898;2023-06-24T11:32:39;29.50;71.80
40516;DHT22;26216;53.724;9.898;2023-06-24T11:35:10;29.60;67.70
40516;DHT22;26216;53.724;9.898;2023-06-24T11:37:41;29.50;67.30
40516;DHT22;26216;53.724;9.898;2023-06-24T11:40:09;29.50;68.80
40516;DHT22;26216;53.724;9.898;2023-06-24T11:42:37;29.50;69.50
40516;DHT22;26216;53.724;9.898;2023-06-24T11:45:05;29.40;69.90
40516;DHT22;26216;53.724;9.898;2023-06-24T11:47:33;29.50;70.20
40516;DHT22;26216;53.724;9.898;2023-06-24T11:50:00;29.50;70.30
40516;DHT22;26216;53.724;9.898;2023-06-24T11:52:45;29.60;71.30
40516;DHT22;26216;53.724;9.898;2023-06-24T11:55:20;29.70;70.10
40516;DHT22;26216;53.724;9.898;2023-06-24T11:57:57;29.90;71.60
40516;DHT22;26216;53.724;9.898;2023-06-24T12:00:26;29.90;70.50
40516;DHT22;26216;53.724;9.898;2023-06-24T12:03:22;30.10;68.60
40516;DHT22;26216;53.724;9.898;2023-06-24T12:05:49;30.10;69.20
40516;DHT22;26216;53.724;9.898;2023-06-24T12:08:15;30.20;68.80
40516;DHT22;26216;53.724;9.898;2023-06-24T12:10:43;30.20;68.50
40516;DHT22;26216;53.724;9.898;2023-06-24T12:13:09;30.30;68.60
40516;DHT22;26216;53.724;9.898;2023-06-24T12:15:35;30.30;67.20
40516;DHT22;26216;53.724;9.898;2023-06-24T12:18:02;30.30;68.70
40516;DHT22;26216;53.724;9.898;2023-06-24T12:20:29;30.30;67.90
40516;DHT22;26216;53.724;9.898;2023-06-24T12:22:56;30.40;68.70
40516;DHT22;26216;53.724;9.898;2023-06-24T12:25:21;30.40;69.60
40516;DHT22;26216;53.724;9.898;2023-06-24T12:27:47;30.50;69.00
40516;DHT22;26216;53.724;9.898;2023-06-24T12:30:15;30.60;69.60
40516;DHT22;26216;53.724;9.898;2023-06-24T12:32:43;30.70;67.40
40516;DHT22;26216;53.724;9.898;2023-06-24T12:35:10;30.70;66.80
40516;DHT22;26216;53.724;9.898;2023-06-24T12:37:36;30.70;67.20
40516;DHT22;26216;53.724;9.898;2023-06-24T12:40:03;30.80;67.40
40516;DHT22;26216;53.724;9.898;2023-06-24T12:42:31;30.90;67.70
40516;DHT22;26216;53.724;9.898;2023-06-24T12:44:59;30.90;66.80
40516;DHT22;26216;53.724;9.898;2023-06-24T12:47:26;30.90;66.80
40516;DHT22;26216;53.724;9.898;2023-06-24T12:49:52;30.90;65.70
40516;DHT22;26216;53.724;9.898;2023-06-24T12:52:18;30.90;65.80
40516;DHT22;26216;53.724;9.898;2023-06-24T12:54:44;30.80;64.60
40516;DHT22;26216;53.724;9.898;2023-06-24T12:57:10;30.80;65.60
40516;DHT22;26216;53.724;9.898;2023-06-24T12:59:36;30.80;66.20
40516;DHT22;26216;53.724;9.898;2023-06-24T13:02:02;30.70;64.20
40516;DHT22;26216;53.724;9.898;2023-06-24T13:04:28;30.60;63.70
40516;DHT22;26216;53.724;9.898;2023-06-24T13:06:54;30.50;63.50
40516;DHT22;26216;53.724;9.898;2023-06-24T13:09:20;30.40;64.20
40516;DHT22;26216;53.724;9.898;2023-06-24T13:11:46;30.30;64.20
40516;DHT22;26216;53.724;9.898;2023-06-24T13:14:13;30.10;62.80
40516;DHT22;26216;53.724;9.898;2023-06-24T13:16:39;30.00;63.10
40516;DHT22;26216;53.724;9.898;2023-06-24T13:19:05;29.80;64.00
40516;DHT22;26216;53.724;9.898;2023-06-24T13:21:31;29.60;63.70
40516;DHT22;26216;53.724;9.898;2023-06-24T13:23:57;29.50;64.60
40516;DHT22;26216;53.724;9.898;2023-06-24T13:26:23;29.40;64.20
40516;DHT22;26216;53.724;9.898;2023-06-24T13:28:50;29.30;64.40
40516;DHT22;26216;53.724;9.898;2023-06-24T13:31:16;29.20;65.00
40516;DHT22;26216;53.724;9.898;2023-06-24T13:33:42;29.10;65.60
40516;DHT22;26216;53.724;9.898;2023-06-24T13:36:26;29.00;65.10
40516;DHT22;26216;53.724;9.898;2023-06-24T13:38:53;29.00;66.00
40516;DHT22;26216;53.724;9.898;2023-06-24T13:41:20;28.90;66.00
40516;DHT22;26216;53.724;9.898;2023-06-24T13:43:46;28.90;66.00
40516;DHT22;26216;53.724;9.898;2023-06-24T13:46:12;29.00;66.20
40516;DHT22;26216;53.724;9.898;2023-06-24T13:48:40;29.00;66.70
40516;DHT22;26216;53.724;9.898;2023-06-24T13:51:07;29.00;67.00
40516;DHT22;26216;53.724;9.898;2023-06-24T13:53:33;29.00;66.30
40516;DHT22;26216;53.724;9.898;2023-06-24T13:56:00;29.00;67.30
40516;DHT22;26216;53.724;9.898;2023-06-24T13:58:27;29.10;66.80
40516;DHT22;26216;53.724;9.898;2023-06-24T14:00:53;29.10;65.00
40516;DHT22;26216;53.724;9.898;2023-06-24T14:03:20;29.10;65.00
40516;DHT22;26216;53.724;9.898;2023-06-24T14:05:48;29.10;64.90
40516;DHT22;26216;53.724;9.898;2023-06-24T14:08:15;29.10;64.40
40516;DHT22;26216;53.724;9.898;2023-06-24T14:10:42;29.00;64.60
40516;DHT22;26216;53.724;9.898;2023-06-24T14:13:09;29.00;65.70
40516;DHT22;26216;53.724;9.898;2023-06-24T14:15:36;29.00;66.40
40516;DHT22;26216;53.724;9.898;2023-06-24T14:18:03;29.00;66.30
40516;DHT22;26216;53.724;9.898;2023-06-24T14:20:29;29.00;65.10
40516;DHT22;26216;53.724;9.898;2023-06-24T14:22:55;29.10;64.90
40516;DHT22;26216;53.724;9.898;2023-06-24T14:25:21;29.10;64.20
40516;DHT22;26216;53.724;9.898;2023-06-24T14:27:47;29.10;65.40
40516;DHT22;26216;53.724;9.898;2023-06-24T14:30:13;29.10;64.80
40516;DHT22;26216;53.724;9.898;2023-06-24T14:32:40;29.20;65.20
40516;DHT22;26216;53.724;9.898;2023-06-24T14:35:08;29.20;64.20
40516;DHT22;26216;53.724;9.898;2023-06-24T14:37:38;29.10;63.80
40516;DHT22;26216;53.724;9.898;2023-06-24T14:40:07;29.10;64.50
40516;DHT22;26216;53.724;9.898;2023-06-24T14:42:33;29.20;64.70
40516;DHT22;26216;53.724;9.898;2023-06-24T14:44:59;29.20;65.20
40516;DHT22;26216;53.724;9.898;2023-06-24T14:47:25;29.30;64.00
40516;DHT22;26216;53.724;9.898;2023-06-24T14:49:51;29.30;63.60
40516;DHT22;26216;53.724;9.898;2023-06-24T14:52:17;29.30;64.50
40516;DHT22;26216;53.724;9.898;2023-06-24T14:54:43;29.40;65.30
40516;DHT22;26216;53.724;9.898;2023-06-24T14:57:09;29.50;65.50
40516;DHT22;26216;53.724;9.898;2023-06-24T14:59:35;29.70;64.40
40516;DHT22;26216;53.724;9.898;2023-06-24T15:02:01;29.70;63.70
40516;DHT22;26216;53.724;9.898;2023-06-24T15:04:26;29.70;63.30
40516;DHT22;26216;53.724;9.898;2023-06-24T15:06:52;29.60;63.30
40516;DHT22;26216;53.724;9.898;2023-06-24T15:09:18;29.60;63.70
40516;DHT22;26216;53.724;9.898;2023-06-24T15:11:44;29.60;64.10
40516;DHT22;26216;53.724;9.898;2023-06-24T15:14:11;29.70;64.40
40516;DHT22;26216;53.724;9.898;2023-06-24T15:16:37;29.70;64.00
40516;DHT22;26216;53.724;9.898;2023-06-24T15:19:03;29.80;63.40
40516;DHT22;26216;53.724;9.898;2023-06-24T15:21:30;29.80;63.50
40516;DHT22;26216;53.724;9.898;2023-06-24T15:23:59;29.80;64.10
40516;DHT22;26216;53.724;9.898;2023-06-24T15:26:26;29.70;63.00
40516;DHT22;26216;53.724;9.898;2023-06-24T15:28:56;29.70;63.90
40516;DHT22;26216;53.724;9.898;2023-06-24T15:31:25;29.60;64.00
40516;DHT22;26216;53.724;9.898;2023-06-24T15:33:52;29.60;63.90
40516;DHT22;26216;53.724;9.898;2023-06-24T15:36:18;29.50;63.90
40516;DHT22;26216;53.724;9.898;2023-06-24T15:38:47;29.60;64.60
40516;DHT22;26216;53.724;9.898;2023-06-24T15:41:13;29.60;64.40
40516;DHT22;26216;53.724;9.898;2023-06-24T15:43:41;29.60;64.30
40516;DHT22;26216;53.724;9.898;2023-06-24T15:46:09;29.70;63.40
40516;DHT22;26216;53.724;9.898;2023-06-24T15:48:36;29.70;63.60
40516;DHT22;26216;53.724;9.898;2023-06-24T15:51:05;29.60;63.80
40516;DHT22;26216;53.724;9.898;2023-06-24T15:53:32;29.60;63.20